Terminal Aerodrome Forecast
Issued by NWS Los Angeles, CA

Home | Current Version | Previous Version | Text Only | Print | Product List | Glossary On
Versions: 1 2 3 4 5 6 7 8 9 10 11 12 13 14 15 16 17 18 19 20 21 22 23 24 25 26
000
FTUS46 KLOX 182100 AAA
TAFSMX
TAF AMD
KSMX 182107Z 1821/1918 30011KT P6SM BKN020
     FM190300 30006KT 4SM BR OVC008
     FM191100 VRB03KT 1SM BR OVC005
     FM191400 VRB03KT 4SM BR OVC008=

USA.gov is the U.S. government's official web portal to all federal, state and local government web resources and services.